sensor_id;sensor_type;location;lat;lon;timestamp;P1;durP1;ratioP1;P2;durP2;ratioP2
5303;SDS011;2674;49.722;10.892;2023-01-15T00:01:32;3.03;;;1.73;;
5303;SDS011;2674;49.722;10.892;2023-01-15T00:03:59;2.00;;;1.90;;
5303;SDS011;2674;49.722;10.892;2023-01-15T00:06:28;1.50;;;1.40;;
5303;SDS011;2674;49.722;10.892;2023-01-15T00:08:54;1.47;;;1.30;;
5303;SDS011;2674;49.722;10.892;2023-01-15T00:11:21;4.10;;;1.97;;
5303;SDS011;2674;49.722;10.892;2023-01-15T00:13:47;2.70;;;1.80;;
5303;SDS011;2674;49.722;10.892;2023-01-15T00:16:23;1.50;;;1.20;;
5303;SDS011;2674;49.722;10.892;2023-01-15T00:18:54;1.63;;;1.40;;
5303;SDS011;2674;49.722;10.892;2023-01-15T00:21:21;1.93;;;1.10;;
5303;SDS011;2674;49.722;10.892;2023-01-15T00:23:48;2.77;;;1.57;;
5303;SDS011;2674;49.722;10.892;2023-01-15T00:26:33;1.53;;;1.37;;
5303;SDS011;2674;49.722;10.892;2023-01-15T00:29:18;1.10;;;1.00;;
5303;SDS011;2674;49.722;10.892;2023-01-15T00:31:49;2.27;;;1.33;;
5303;SDS011;2674;49.722;10.892;2023-01-15T00:34:36;1.27;;;1.17;;
5303;SDS011;2674;49.722;10.892;2023-01-15T00:37:02;1.30;;;1.30;;
5303;SDS011;2674;49.722;10.892;2023-01-15T00:39:28;1.63;;;1.17;;
5303;SDS011;2674;49.722;10.892;2023-01-15T00:41:54;2.30;;;1.30;;
5303;SDS011;2674;49.722;10.892;2023-01-15T00:44:20;1.50;;;1.40;;
5303;SDS011;2674;49.722;10.892;2023-01-15T00:46:46;2.67;;;1.20;;
5303;SDS011;2674;49.722;10.892;2023-01-15T00:49:12;2.17;;;1.30;;
5303;SDS011;2674;49.722;10.892;2023-01-15T00:51:38;2.97;;;1.07;;
5303;SDS011;2674;49.722;10.892;2023-01-15T00:54:04;1.20;;;1.20;;
5303;SDS011;2674;49.722;10.892;2023-01-15T00:56:30;1.60;;;1.40;;
5303;SDS011;2674;49.722;10.892;2023-01-15T00:58:56;1.40;;;1.30;;
5303;SDS011;2674;49.722;10.892;2023-01-15T01:01:22;1.23;;;1.17;;
5303;SDS011;2674;49.722;10.892;2023-01-15T01:03:48;1.27;;;1.27;;
5303;SDS011;2674;49.722;10.892;2023-01-15T01:06:17;2.23;;;1.30;;
5303;SDS011;2674;49.722;10.892;2023-01-15T01:08:43;2.20;;;1.53;;
5303;SDS011;2674;49.722;10.892;2023-01-15T01:11:10;1.33;;;1.33;;
5303;SDS011;2674;49.722;10.892;2023-01-15T01:13:39;1.37;;;1.27;;
5303;SDS011;2674;49.722;10.892;2023-01-15T01:18:54;0.87;;;0.83;;
5303;SDS011;2674;49.722;10.892;2023-01-15T01:21:20;1.53;;;1.10;;
5303;SDS011;2674;49.722;10.892;2023-01-15T01:23:46;1.37;;;0.90;;
5303;SDS011;2674;49.722;10.892;2023-01-15T01:26:12;1.37;;;1.37;;
5303;SDS011;2674;49.722;10.892;2023-01-15T01:28:39;1.13;;;1.13;;
5303;SDS011;2674;49.722;10.892;2023-01-15T01:31:05;1.33;;;1.23;;
5303;SDS011;2674;49.722;10.892;2023-01-15T01:33:32;1.77;;;1.10;;
5303;SDS011;2674;49.722;10.892;2023-01-15T01:35:58;1.10;;;1.10;;
5303;SDS011;2674;49.722;10.892;2023-01-15T01:38:24;2.10;;;1.13;;
5303;SDS011;2674;49.722;10.892;2023-01-15T01:40:50;1.63;;;1.37;;
5303;SDS011;2674;49.722;10.892;2023-01-15T01:43:20;2.93;;;1.23;;
5303;SDS011;2674;49.722;10.892;2023-01-15T01:45:50;2.43;;;1.90;;
5303;SDS011;2674;49.722;10.892;2023-01-15T01:48:16;1.63;;;1.20;;
5303;SDS011;2674;49.722;10.892;2023-01-15T01:50:45;1.03;;;1.00;;
5303;SDS011;2674;49.722;10.892;2023-01-15T01:53:13;2.47;;;1.50;;
5303;SDS011;2674;49.722;10.892;2023-01-15T01:55:43;1.47;;;1.30;;
5303;SDS011;2674;49.722;10.892;2023-01-15T01:58:09;2.00;;;1.00;;
5303;SDS011;2674;49.722;10.892;2023-01-15T02:00:38;1.00;;;1.00;;
5303;SDS011;2674;49.722;10.892;2023-01-15T02:03:08;1.43;;;1.33;;
5303;SDS011;2674;49.722;10.892;2023-01-15T02:05:37;3.00;;;1.10;;
5303;SDS011;2674;49.722;10.892;2023-01-15T02:08:05;3.67;;;1.30;;
5303;SDS011;2674;49.722;10.892;2023-01-15T02:10:32;1.77;;;1.20;;
5303;SDS011;2674;49.722;10.892;2023-01-15T02:13:15;1.40;;;1.30;;
5303;SDS011;2674;49.722;10.892;2023-01-15T02:15:56;1.00;;;1.00;;
5303;SDS011;2674;49.722;10.892;2023-01-15T02:18:34;0.77;;;0.77;;
5303;SDS011;2674;49.722;10.892;2023-01-15T02:21:15;0.90;;;0.90;;
5303;SDS011;2674;49.722;10.892;2023-01-15T02:29:18;1.07;;;1.00;;
5303;SDS011;2674;49.722;10.892;2023-01-15T02:32:18;0.97;;;0.70;;
5303;SDS011;2674;49.722;10.892;2023-01-15T02:34:51;1.03;;;1.03;;
5303;SDS011;2674;49.722;10.892;2023-01-15T02:37:21;1.07;;;1.07;;
5303;SDS011;2674;49.722;10.892;2023-01-15T02:39:51;1.97;;;0.90;;
5303;SDS011;2674;49.722;10.892;2023-01-15T02:42:19;1.03;;;1.00;;
5303;SDS011;2674;49.722;10.892;2023-01-15T02:44:48;0.70;;;0.70;;
5303;SDS011;2674;49.722;10.892;2023-01-15T02:47:18;0.93;;;0.80;;
5303;SDS011;2674;49.722;10.892;2023-01-15T02:49:49;0.80;;;0.80;;
5303;SDS011;2674;49.722;10.892;2023-01-15T02:52:24;1.97;;;1.00;;
5303;SDS011;2674;49.722;10.892;2023-01-15T02:55:02;2.00;;;0.80;;
5303;SDS011;2674;49.722;10.892;2023-01-15T02:57:35;0.67;;;0.67;;
5303;SDS011;2674;49.722;10.892;2023-01-15T03:00:04;0.90;;;0.90;;
5303;SDS011;2674;49.722;10.892;2023-01-15T03:02:39;6.30;;;1.00;;
5303;SDS011;2674;49.722;10.892;2023-01-15T03:05:21;0.97;;;0.97;;
5303;SDS011;2674;49.722;10.892;2023-01-15T03:07:58;17.43;;;1.60;;
5303;SDS011;2674;49.722;10.892;2023-01-15T03:13:15;0.80;;;0.80;;
5303;SDS011;2674;49.722;10.892;2023-01-15T03:18:43;0.83;;;0.83;;
5303;SDS011;2674;49.722;10.892;2023-01-15T03:24:46;1.17;;;1.10;;
5303;SDS011;2674;49.722;10.892;2023-01-15T03:27:26;1.17;;;0.80;;
5303;SDS011;2674;49.722;10.892;2023-01-15T03:29:54;1.90;;;1.13;;
5303;SDS011;2674;49.722;10.892;2023-01-15T03:32:26;1.00;;;0.90;;
5303;SDS011;2674;49.722;10.892;2023-01-15T03:34:54;1.37;;;1.27;;
5303;SDS011;2674;49.722;10.892;2023-01-15T03:37:21;0.80;;;0.80;;
5303;SDS011;2674;49.722;10.892;2023-01-15T03:39:48;2.20;;;1.20;;
5303;SDS011;2674;49.722;10.892;2023-01-15T03:42:19;6.00;;;1.00;;
5303;SDS011;2674;49.722;10.892;2023-01-15T03:55:35;0.73;;;0.73;;
5303;SDS011;2674;49.722;10.892;2023-01-15T03:58:26;1.67;;;1.33;;
5303;SDS011;2674;49.722;10.892;2023-01-15T04:00:54;0.70;;;0.70;;
5303;SDS011;2674;49.722;10.892;2023-01-15T04:03:24;3.43;;;1.00;;
5303;SDS011;2674;49.722;10.892;2023-01-15T04:05:51;1.10;;;1.10;;
5303;SDS011;2674;49.722;10.892;2023-01-15T04:08:21;1.37;;;1.10;;
5303;SDS011;2674;49.722;10.892;2023-01-15T04:10:53;1.10;;;1.10;;
5303;SDS011;2674;49.722;10.892;2023-01-15T04:13:20;0.70;;;0.70;;
5303;SDS011;2674;49.722;10.892;2023-01-15T04:15:46;1.47;;;0.80;;
5303;SDS011;2674;49.722;10.892;2023-01-15T04:18:12;1.80;;;1.10;;
5303;SDS011;2674;49.722;10.892;2023-01-15T04:20:38;0.87;;;0.87;;
5303;SDS011;2674;49.722;10.892;2023-01-15T04:23:04;0.70;;;0.70;;
5303;SDS011;2674;49.722;10.892;2023-01-15T04:25:30;0.73;;;0.70;;
5303;SDS011;2674;49.722;10.892;2023-01-15T04:27:55;1.07;;;0.90;;
5303;SDS011;2674;49.722;10.892;2023-01-15T04:30:21;0.70;;;0.70;;
5303;SDS011;2674;49.722;10.892;2023-01-15T04:32:47;1.50;;;1.40;;
5303;SDS011;2674;49.722;10.892;2023-01-15T04:35:14;4.30;;;0.90;;
5303;SDS011;2674;49.722;10.892;2023-01-15T04:37:40;0.90;;;0.90;;
5303;SDS011;2674;49.722;10.892;2023-01-15T04:40:06;1.93;;;0.90;;
5303;SDS011;2674;49.722;10.892;2023-01-15T04:42:32;0.70;;;0.70;;
5303;SDS011;2674;49.722;10.892;2023-01-15T04:45:24;2.00;;;0.87;;
5303;SDS011;2674;49.722;10.892;2023-01-15T04:47:50;3.13;;;0.80;;
5303;SDS011;2674;49.722;10.892;2023-01-15T04:50:16;1.47;;;1.00;;
5303;SDS011;2674;49.722;10.892;2023-01-15T04:52:42;0.77;;;0.77;;
5303;SDS011;2674;49.722;10.892;2023-01-15T04:55:07;1.37;;;1.00;;
5303;SDS011;2674;49.722;10.892;2023-01-15T04:57:33;1.57;;;1.00;;
5303;SDS011;2674;49.722;10.892;2023-01-15T05:00:00;0.87;;;0.87;;
5303;SDS011;2674;49.722;10.892;2023-01-15T05:02:27;2.80;;;0.93;;
5303;SDS011;2674;49.722;10.892;2023-01-15T05:04:53;0.70;;;0.70;;
5303;SDS011;2674;49.722;10.892;2023-01-15T05:07:20;0.70;;;0.70;;
5303;SDS011;2674;49.722;10.892;2023-01-15T05:09:46;0.80;;;0.80;;
5303;SDS011;2674;49.722;10.892;2023-01-15T05:12:16;2.63;;;1.03;;
5303;SDS011;2674;49.722;10.892;2023-01-15T05:14:42;0.83;;;0.63;;
5303;SDS011;2674;49.722;10.892;2023-01-15T05:17:08;3.03;;;0.90;;
5303;SDS011;2674;49.722;10.892;2023-01-15T05:19:33;0.70;;;0.70;;
5303;SDS011;2674;49.722;10.892;2023-01-15T05:21:59;0.90;;;0.90;;
5303;SDS011;2674;49.722;10.892;2023-01-15T05:24:26;0.77;;;0.77;;
5303;SDS011;2674;49.722;10.892;2023-01-15T05:26:52;0.60;;;0.60;;
5303;SDS011;2674;49.722;10.892;2023-01-15T05:29:19;2.20;;;0.90;;
5303;SDS011;2674;49.722;10.892;2023-01-15T05:31:44;0.70;;;0.70;;
5303;SDS011;2674;49.722;10.892;2023-01-15T05:34:11;3.17;;;1.00;;
5303;SDS011;2674;49.722;10.892;2023-01-15T05:36:37;1.00;;;1.00;;
5303;SDS011;2674;49.722;10.892;2023-01-15T05:39:03;1.20;;;1.20;;
5303;SDS011;2674;49.722;10.892;2023-01-15T05:41:30;1.20;;;1.10;;
5303;SDS011;2674;49.722;10.892;2023-01-15T05:44:15;0.80;;;0.80;;
5303;SDS011;2674;49.722;10.892;2023-01-15T05:46:48;1.10;;;1.10;;
5303;SDS011;2674;49.722;10.892;2023-01-15T05:49:18;1.20;;;1.10;;
5303;SDS011;2674;49.722;10.892;2023-01-15T05:51:45;5.17;;;0.77;;
5303;SDS011;2674;49.722;10.892;2023-01-15T05:54:12;1.63;;;1.20;;
5303;SDS011;2674;49.722;10.892;2023-01-15T05:56:40;0.70;;;0.60;;
5303;SDS011;2674;49.722;10.892;2023-01-15T05:59:08;0.60;;;0.60;;
5303;SDS011;2674;49.722;10.892;2023-01-15T06:01:34;0.70;;;0.70;;
5303;SDS011;2674;49.722;10.892;2023-01-15T06:04:00;0.63;;;0.63;;
5303;SDS011;2674;49.722;10.892;2023-01-15T06:06:28;1.70;;;0.83;;
5303;SDS011;2674;49.722;10.892;2023-01-15T06:08:54;0.60;;;0.60;;
5303;SDS011;2674;49.722;10.892;2023-01-15T06:11:20;1.40;;;0.50;;
5303;SDS011;2674;49.722;10.892;2023-01-15T06:13:49;0.40;;;0.40;;
5303;SDS011;2674;49.722;10.892;2023-01-15T06:16:15;0.50;;;0.50;;
5303;SDS011;2674;49.722;10.892;2023-01-15T06:18:42;0.50;;;0.50;;
5303;SDS011;2674;49.722;10.892;2023-01-15T06:21:09;0.93;;;0.60;;
5303;SDS011;2674;49.722;10.892;2023-01-15T06:23:36;0.60;;;0.60;;
5303;SDS011;2674;49.722;10.892;2023-01-15T06:26:07;0.50;;;0.50;;
5303;SDS011;2674;49.722;10.892;2023-01-15T06:28:42;0.60;;;0.60;;
5303;SDS011;2674;49.722;10.892;2023-01-15T06:31:09;0.50;;;0.50;;
5303;SDS011;2674;49.722;10.892;2023-01-15T06:33:37;0.50;;;0.50;;
5303;SDS011;2674;49.722;10.892;2023-01-15T06:36:06;0.50;;;0.50;;
5303;SDS011;2674;49.722;10.892;2023-01-15T06:38:35;0.50;;;0.50;;
5303;SDS011;2674;49.722;10.892;2023-01-15T06:41:01;1.13;;;0.60;;
5303;SDS011;2674;49.722;10.892;2023-01-15T06:43:29;0.50;;;0.50;;
5303;SDS011;2674;49.722;10.892;2023-01-15T06:46:13;0.70;;;0.70;;
5303;SDS011;2674;49.722;10.892;2023-01-15T06:49:00;0.60;;;0.60;;
5303;SDS011;2674;49.722;10.892;2023-01-15T06:51:29;0.70;;;0.70;;
5303;SDS011;2674;49.722;10.892;2023-01-15T06:54:01;0.70;;;0.70;;
5303;SDS011;2674;49.722;10.892;2023-01-15T06:56:28;0.57;;;0.57;;
5303;SDS011;2674;49.722;10.892;2023-01-15T06:58:58;0.70;;;0.60;;
5303;SDS011;2674;49.722;10.892;2023-01-15T07:01:24;0.80;;;0.80;;
5303;SDS011;2674;49.722;10.892;2023-01-15T07:03:55;1.70;;;0.60;;
5303;SDS011;2674;49.722;10.892;2023-01-15T07:06:27;0.50;;;0.50;;
5303;SDS011;2674;49.722;10.892;2023-01-15T07:08:56;2.47;;;0.70;;
5303;SDS011;2674;49.722;10.892;2023-01-15T07:11:25;0.67;;;0.67;;
5303;SDS011;2674;49.722;10.892;2023-01-15T07:13:55;0.53;;;0.53;;
5303;SDS011;2674;49.722;10.892;2023-01-15T07:16:33;0.77;;;0.67;;
5303;SDS011;2674;49.722;10.892;2023-01-15T07:19:03;0.60;;;0.60;;
5303;SDS011;2674;49.722;10.892;2023-01-15T07:21:31;0.70;;;0.70;;
5303;SDS011;2674;49.722;10.892;2023-01-15T07:24:03;1.40;;;1.27;;
5303;SDS011;2674;49.722;10.892;2023-01-15T07:26:36;0.70;;;0.70;;
5303;SDS011;2674;49.722;10.892;2023-01-15T07:29:15;1.10;;;1.10;;
5303;SDS011;2674;49.722;10.892;2023-01-15T07:31:43;0.60;;;0.60;;
5303;SDS011;2674;49.722;10.892;2023-01-15T07:34:14;0.67;;;0.67;;
5303;SDS011;2674;49.722;10.892;2023-01-15T07:36:43;0.97;;;0.70;;
5303;SDS011;2674;49.722;10.892;2023-01-15T07:39:11;1.70;;;1.03;;
5303;SDS011;2674;49.722;10.892;2023-01-15T07:41:45;1.20;;;0.80;;
5303;SDS011;2674;49.722;10.892;2023-01-15T07:44:47;1.67;;;0.87;;
5303;SDS011;2674;49.722;10.892;2023-01-15T07:47:49;1.93;;;1.83;;
5303;SDS011;2674;49.722;10.892;2023-01-15T07:50:35;2.30;;;2.10;;
5303;SDS011;2674;49.722;10.892;2023-01-15T07:53:01;1.63;;;1.53;;
5303;SDS011;2674;49.722;10.892;2023-01-15T07:55:27;1.17;;;1.03;;
5303;SDS011;2674;49.722;10.892;2023-01-15T07:57:53;1.40;;;0.83;;
5303;SDS011;2674;49.722;10.892;2023-01-15T08:00:20;1.43;;;0.90;;
5303;SDS011;2674;49.722;10.892;2023-01-15T08:02:50;1.30;;;1.13;;
5303;SDS011;2674;49.722;10.892;2023-01-15T08:05:16;3.43;;;0.70;;
5303;SDS011;2674;49.722;10.892;2023-01-15T08:07:43;0.60;;;0.60;;
5303;SDS011;2674;49.722;10.892;2023-01-15T08:10:10;0.60;;;0.60;;
5303;SDS011;2674;49.722;10.892;2023-01-15T08:12:37;0.70;;;0.70;;
5303;SDS011;2674;49.722;10.892;2023-01-15T08:15:22;1.00;;;1.00;;
5303;SDS011;2674;49.722;10.892;2023-01-15T08:17:48;1.20;;;1.20;;
5303;SDS011;2674;49.722;10.892;2023-01-15T08:20:18;0.60;;;0.60;;
5303;SDS011;2674;49.722;10.892;2023-01-15T08:22:46;1.03;;;1.00;;
5303;SDS011;2674;49.722;10.892;2023-01-15T08:25:14;0.80;;;0.80;;
5303;SDS011;2674;49.722;10.892;2023-01-15T08:27:42;2.63;;;2.10;;
5303;SDS011;2674;49.722;10.892;2023-01-15T08:30:16;1.23;;;0.93;;
5303;SDS011;2674;49.722;10.892;2023-01-15T08:32:47;9.47;;;2.90;;
5303;SDS011;2674;49.722;10.892;2023-01-15T08:35:13;12.00;;;3.03;;
5303;SDS011;2674;49.722;10.892;2023-01-15T08:37:40;9.30;;;3.67;;
5303;SDS011;2674;49.722;10.892;2023-01-15T08:40:06;8.30;;;3.40;;
5303;SDS011;2674;49.722;10.892;2023-01-15T08:42:33;3.43;;;1.93;;
5303;SDS011;2674;49.722;10.892;2023-01-15T08:44:59;2.40;;;1.80;;
5303;SDS011;2674;49.722;10.892;2023-01-15T08:47:25;1.83;;;1.73;;
5303;SDS011;2674;49.722;10.892;2023-01-15T08:49:51;1.07;;;1.07;;
5303;SDS011;2674;49.722;10.892;2023-01-15T08:52:16;2.57;;;1.77;;
5303;SDS011;2674;49.722;10.892;2023-01-15T08:54:42;3.80;;;3.30;;
5303;SDS011;2674;49.722;10.892;2023-01-15T08:57:08;2.50;;;0.97;;
5303;SDS011;2674;49.722;10.892;2023-01-15T08:59:36;2.93;;;1.23;;
5303;SDS011;2674;49.722;10.892;2023-01-15T09:02:02;1.40;;;1.30;;
5303;SDS011;2674;49.722;10.892;2023-01-15T09:04:33;1.57;;;1.47;;
5303;SDS011;2674;49.722;10.892;2023-01-15T09:07:01;3.83;;;2.67;;
5303;SDS011;2674;49.722;10.892;2023-01-15T09:09:27;9.23;;;4.70;;
5303;SDS011;2674;49.722;10.892;2023-01-15T09:11:53;9.57;;;4.70;;
5303;SDS011;2674;49.722;10.892;2023-01-15T09:14:21;10.10;;;5.27;;
5303;SDS011;2674;49.722;10.892;2023-01-15T09:16:50;4.70;;;2.80;;
5303;SDS011;2674;49.722;10.892;2023-01-15T09:19:15;2.90;;;2.57;;
5303;SDS011;2674;49.722;10.892;2023-01-15T09:21:41;1.40;;;1.30;;
5303;SDS011;2674;49.722;10.892;2023-01-15T09:24:08;1.53;;;1.13;;
5303;SDS011;2674;49.722;10.892;2023-01-15T09:26:37;7.83;;;2.10;;
5303;SDS011;2674;49.722;10.892;2023-01-15T09:29:07;0.83;;;0.83;;
5303;SDS011;2674;49.722;10.892;2023-01-15T09:31:34;2.13;;;1.10;;
5303;SDS011;2674;49.722;10.892;2023-01-15T09:34:00;12.47;;;6.60;;
5303;SDS011;2674;49.722;10.892;2023-01-15T09:36:27;5.63;;;2.33;;
5303;SDS011;2674;49.722;10.892;2023-01-15T09:38:55;3.17;;;1.60;;
5303;SDS011;2674;49.722;10.892;2023-01-15T09:41:21;3.20;;;2.57;;
5303;SDS011;2674;49.722;10.892;2023-01-15T09:44:20;2.73;;;1.60;;
5303;SDS011;2674;49.722;10.892;2023-01-15T09:55:19;14.40;;;7.10;;
5303;SDS011;2674;49.722;10.892;2023-01-15T09:57:49;4.50;;;3.70;;
5303;SDS011;2674;49.722;10.892;2023-01-15T10:00:21;3.77;;;2.27;;
5303;SDS011;2674;49.722;10.892;2023-01-15T10:05:22;0.90;;;0.90;;
5303;SDS011;2674;49.722;10.892;2023-01-15T10:08:25;0.80;;;0.80;;
5303;SDS011;2674;49.722;10.892;2023-01-15T10:11:01;1.63;;;1.53;;
5303;SDS011;2674;49.722;10.892;2023-01-15T10:13:42;1.80;;;1.70;;
5303;SDS011;2674;49.722;10.892;2023-01-15T10:16:22;3.60;;;2.07;;
5303;SDS011;2674;49.722;10.892;2023-01-15T10:18:50;2.13;;;1.40;;
5303;SDS011;2674;49.722;10.892;2023-01-15T10:24:27;1.27;;;1.20;;
5303;SDS011;2674;49.722;10.892;2023-01-15T10:27:21;0.90;;;0.90;;
5303;SDS011;2674;49.722;10.892;2023-01-15T10:30:00;1.20;;;1.20;;
5303;SDS011;2674;49.722;10.892;2023-01-15T10:32:45;1.27;;;1.13;;
5303;SDS011;2674;49.722;10.892;2023-01-15T10:43:43;2.40;;;2.20;;
5303;SDS011;2674;49.722;10.892;2023-01-15T10:46:18;3.60;;;2.90;;
5303;SDS011;2674;49.722;10.892;2023-01-15T10:48:52;4.00;;;3.00;;
5303;SDS011;2674;49.722;10.892;2023-01-15T10:51:29;4.43;;;2.27;;
5303;SDS011;2674;49.722;10.892;2023-01-15T10:59:18;2.00;;;1.50;;
5303;SDS011;2674;49.722;10.892;2023-01-15T11:01:47;1.40;;;1.40;;
5303;SDS011;2674;49.722;10.892;2023-01-15T11:04:16;1.77;;;1.67;;
5303;SDS011;2674;49.722;10.892;2023-01-15T11:06:42;1.70;;;1.60;;
5303;SDS011;2674;49.722;10.892;2023-01-15T11:09:15;2.13;;;1.90;;
5303;SDS011;2674;49.722;10.892;2023-01-15T11:12:04;2.77;;;2.30;;
5303;SDS011;2674;49.722;10.892;2023-01-15T11:14:43;1.47;;;1.37;;
5303;SDS011;2674;49.722;10.892;2023-01-15T11:17:35;1.80;;;1.70;;
5303;SDS011;2674;49.722;10.892;2023-01-15T11:20:24;2.20;;;2.10;;
5303;SDS011;2674;49.722;10.892;2023-01-15T11:22:53;1.80;;;1.70;;
5303;SDS011;2674;49.722;10.892;2023-01-15T11:25:30;1.50;;;1.40;;
5303;SDS011;2674;49.722;10.892;2023-01-15T11:27:57;1.10;;;1.00;;
5303;SDS011;2674;49.722;10.892;2023-01-15T11:30:28;1.07;;;1.07;;
5303;SDS011;2674;49.722;10.892;2023-01-15T11:32:56;2.50;;;2.27;;
5303;SDS011;2674;49.722;10.892;2023-01-15T11:35:23;2.37;;;2.17;;
5303;SDS011;2674;49.722;10.892;2023-01-15T11:38:00;1.90;;;1.77;;
5303;SDS011;2674;49.722;10.892;2023-01-15T11:40:30;2.40;;;1.50;;
5303;SDS011;2674;49.722;10.892;2023-01-15T11:42:56;1.70;;;1.60;;
5303;SDS011;2674;49.722;10.892;2023-01-15T11:45:50;1.37;;;1.27;;
5303;SDS011;2674;49.722;10.892;2023-01-15T11:48:42;1.40;;;1.30;;
5303;SDS011;2674;49.722;10.892;2023-01-15T11:51:28;1.60;;;1.50;;
5303;SDS011;2674;49.722;10.892;2023-01-15T11:54:03;1.73;;;1.60;;
5303;SDS011;2674;49.722;10.892;2023-01-15T11:56:34;2.43;;;1.50;;
5303;SDS011;2674;49.722;10.892;2023-01-15T11:59:01;2.27;;;2.07;;
5303;SDS011;2674;49.722;10.892;2023-01-15T12:01:37;1.40;;;1.40;;
5303;SDS011;2674;49.722;10.892;2023-01-15T12:06:54;12.30;;;7.00;;
5303;SDS011;2674;49.722;10.892;2023-01-15T12:12:18;1.40;;;1.30;;
5303;SDS011;2674;49.722;10.892;2023-01-15T12:21:01;1.53;;;1.43;;
5303;SDS011;2674;49.722;10.892;2023-01-15T12:23:36;1.80;;;1.67;;
5303;SDS011;2674;49.722;10.892;2023-01-15T12:26:28;2.63;;;1.50;;
5303;SDS011;2674;49.722;10.892;2023-01-15T12:29:20;1.13;;;0.80;;
5303;SDS011;2674;49.722;10.892;2023-01-15T12:34:39;4.03;;;2.40;;
5303;SDS011;2674;49.722;10.892;2023-01-15T12:37:45;2.20;;;2.10;;
5303;SDS011;2674;49.722;10.892;2023-01-15T12:40:39;7.40;;;6.37;;
5303;SDS011;2674;49.722;10.892;2023-01-15T12:43:11;20.20;;;9.60;;
5303;SDS011;2674;49.722;10.892;2023-01-15T12:46:15;4.73;;;3.20;;
5303;SDS011;2674;49.722;10.892;2023-01-15T12:51:34;6.23;;;4.00;;
5303;SDS011;2674;49.722;10.892;2023-01-15T12:54:18;4.27;;;2.80;;
5303;SDS011;2674;49.722;10.892;2023-01-15T12:56:54;7.13;;;5.27;;
5303;SDS011;2674;49.722;10.892;2023-01-15T12:59:29;5.10;;;3.70;;
5303;SDS011;2674;49.722;10.892;2023-01-15T13:02:23;5.70;;;3.20;;
5303;SDS011;2674;49.722;10.892;2023-01-15T13:07:58;2.90;;;2.03;;
5303;SDS011;2674;49.722;10.892;2023-01-15T13:10:30;7.23;;;5.70;;
5303;SDS011;2674;49.722;10.892;2023-01-15T13:20:59;2.13;;;2.03;;
5303;SDS011;2674;49.722;10.892;2023-01-15T13:26:45;1.33;;;1.33;;
5303;SDS011;2674;49.722;10.892;2023-01-15T13:29:40;6.67;;;2.87;;
5303;SDS011;2674;49.722;10.892;2023-01-15T13:32:17;2.57;;;2.00;;
5303;SDS011;2674;49.722;10.892;2023-01-15T13:37:49;2.17;;;1.50;;
5303;SDS011;2674;49.722;10.892;2023-01-15T13:42:51;3.03;;;2.23;;
5303;SDS011;2674;49.722;10.892;2023-01-15T13:45:20;2.10;;;2.00;;
5303;SDS011;2674;49.722;10.892;2023-01-15T13:48:18;1.67;;;1.57;;
5303;SDS011;2674;49.722;10.892;2023-01-15T13:50:54;3.53;;;1.97;;
5303;SDS011;2674;49.722;10.892;2023-01-15T13:53:29;5.90;;;4.10;;
5303;SDS011;2674;49.722;10.892;2023-01-15T13:56:07;5.83;;;3.17;;
5303;SDS011;2674;49.722;10.892;2023-01-15T13:59:01;2.93;;;1.93;;
5303;SDS011;2674;49.722;10.892;2023-01-15T14:01:36;5.03;;;1.70;;
5303;SDS011;2674;49.722;10.892;2023-01-15T14:11:54;4.80;;;2.83;;
5303;SDS011;2674;49.722;10.892;2023-01-15T14:20:29;4.93;;;3.13;;
5303;SDS011;2674;49.722;10.892;2023-01-15T14:23:14;4.10;;;3.10;;
5303;SDS011;2674;49.722;10.892;2023-01-15T14:34:35;2.47;;;2.00;;
5303;SDS011;2674;49.722;10.892;2023-01-15T14:45:06;2.93;;;2.03;;
5303;SDS011;2674;49.722;10.892;2023-01-15T14:47:55;1.80;;;1.50;;
5303;SDS011;2674;49.722;10.892;2023-01-15T14:50:27;1.30;;;1.20;;
5303;SDS011;2674;49.722;10.892;2023-01-15T15:04:03;6.50;;;2.37;;
5303;SDS011;2674;49.722;10.892;2023-01-15T15:06:35;2.20;;;2.00;;
5303;SDS011;2674;49.722;10.892;2023-01-15T15:11:52;2.10;;;2.00;;
5303;SDS011;2674;49.722;10.892;2023-01-15T15:14:41;2.23;;;2.03;;
5303;SDS011;2674;49.722;10.892;2023-01-15T15:17:16;1.30;;;1.30;;
5303;SDS011;2674;49.722;10.892;2023-01-15T15:19:52;1.00;;;0.83;;
5303;SDS011;2674;49.722;10.892;2023-01-15T15:22:26;0.80;;;0.80;;
5303;SDS011;2674;49.722;10.892;2023-01-15T15:24:57;3.53;;;3.33;;
5303;SDS011;2674;49.722;10.892;2023-01-15T15:27:29;3.07;;;2.20;;
5303;SDS011;2674;49.722;10.892;2023-01-15T15:30:05;2.30;;;1.90;;
5303;SDS011;2674;49.722;10.892;2023-01-15T15:32:32;1.40;;;1.40;;
5303;SDS011;2674;49.722;10.892;2023-01-15T15:35:04;1.63;;;1.30;;
5303;SDS011;2674;49.722;10.892;2023-01-15T15:37:45;2.67;;;2.37;;
5303;SDS011;2674;49.722;10.892;2023-01-15T15:40:14;1.97;;;1.77;;
5303;SDS011;2674;49.722;10.892;2023-01-15T15:45:49;2.40;;;2.20;;
5303;SDS011;2674;49.722;10.892;2023-01-15T15:48:35;2.63;;;2.20;;
5303;SDS011;2674;49.722;10.892;2023-01-15T15:51:23;2.00;;;1.90;;
5303;SDS011;2674;49.722;10.892;2023-01-15T15:54:03;2.37;;;2.10;;
5303;SDS011;2674;49.722;10.892;2023-01-15T15:56:31;6.90;;;3.40;;
5303;SDS011;2674;49.722;10.892;2023-01-15T15:58:58;4.83;;;3.30;;
5303;SDS011;2674;49.722;10.892;2023-01-15T16:01:24;4.73;;;3.10;;
5303;SDS011;2674;49.722;10.892;2023-01-15T16:03:51;6.90;;;5.27;;
5303;SDS011;2674;49.722;10.892;2023-01-15T16:06:25;6.50;;;5.90;;
5303;SDS011;2674;49.722;10.892;2023-01-15T16:08:53;2.83;;;2.63;;
5303;SDS011;2674;49.722;10.892;2023-01-15T16:11:20;6.07;;;4.50;;
5303;SDS011;2674;49.722;10.892;2023-01-15T16:13:50;7.27;;;3.00;;
5303;SDS011;2674;49.722;10.892;2023-01-15T16:16:18;7.80;;;5.47;;
5303;SDS011;2674;49.722;10.892;2023-01-15T16:18:46;2.10;;;2.00;;
5303;SDS011;2674;49.722;10.892;2023-01-15T16:21:19;5.70;;;4.63;;
5303;SDS011;2674;49.722;10.892;2023-01-15T16:24:04;8.87;;;5.80;;
5303;SDS011;2674;49.722;10.892;2023-01-15T16:29:03;7.10;;;4.97;;
5303;SDS011;2674;49.722;10.892;2023-01-15T16:31:39;8.80;;;5.40;;
5303;SDS011;2674;49.722;10.892;2023-01-15T16:34:05;5.47;;;3.80;;
5303;SDS011;2674;49.722;10.892;2023-01-15T16:36:39;9.53;;;4.10;;
5303;SDS011;2674;49.722;10.892;2023-01-15T16:39:06;6.03;;;3.20;;
5303;SDS011;2674;49.722;10.892;2023-01-15T16:41:50;8.77;;;3.63;;
5303;SDS011;2674;49.722;10.892;2023-01-15T16:47:24;18.50;;;10.83;;
5303;SDS011;2674;49.722;10.892;2023-01-15T16:49:52;6.97;;;3.73;;
5303;SDS011;2674;49.722;10.892;2023-01-15T16:52:51;6.17;;;3.37;;
5303;SDS011;2674;49.722;10.892;2023-01-15T17:00:39;7.50;;;4.30;;
5303;SDS011;2674;49.722;10.892;2023-01-15T17:03:20;10.63;;;7.40;;
5303;SDS011;2674;49.722;10.892;2023-01-15T17:05:50;10.30;;;8.53;;
5303;SDS011;2674;49.722;10.892;2023-01-15T17:08:21;12.60;;;6.63;;
5303;SDS011;2674;49.722;10.892;2023-01-15T17:10:55;14.23;;;8.67;;
5303;SDS011;2674;49.722;10.892;2023-01-15T17:13:44;12.50;;;8.10;;
5303;SDS011;2674;49.722;10.892;2023-01-15T17:18:41;7.10;;;4.00;;
5303;SDS011;2674;49.722;10.892;2023-01-15T17:21:10;5.17;;;3.13;;
5303;SDS011;2674;49.722;10.892;2023-01-15T17:23:45;4.53;;;3.27;;
5303;SDS011;2674;49.722;10.892;2023-01-15T17:26:13;3.07;;;2.80;;
5303;SDS011;2674;49.722;10.892;2023-01-15T17:28:45;5.57;;;3.30;;
5303;SDS011;2674;49.722;10.892;2023-01-15T17:31:17;5.93;;;4.53;;
5303;SDS011;2674;49.722;10.892;2023-01-15T17:33:44;11.70;;;7.23;;
5303;SDS011;2674;49.722;10.892;2023-01-15T17:36:13;4.00;;;2.37;;
5303;SDS011;2674;49.722;10.892;2023-01-15T17:38:39;5.60;;;3.17;;
5303;SDS011;2674;49.722;10.892;2023-01-15T17:41:04;4.70;;;3.40;;
5303;SDS011;2674;49.722;10.892;2023-01-15T17:43:32;3.93;;;3.10;;
5303;SDS011;2674;49.722;10.892;2023-01-15T17:45:59;8.23;;;3.87;;
5303;SDS011;2674;49.722;10.892;2023-01-15T17:48:25;3.80;;;2.80;;
5303;SDS011;2674;49.722;10.892;2023-01-15T17:50:51;6.20;;;3.20;;
5303;SDS011;2674;49.722;10.892;2023-01-15T17:53:19;2.70;;;1.60;;
5303;SDS011;2674;49.722;10.892;2023-01-15T17:55:45;4.20;;;2.30;;
5303;SDS011;2674;49.722;10.892;2023-01-15T17:58:29;1.57;;;1.47;;
5303;SDS011;2674;49.722;10.892;2023-01-15T18:01:15;4.90;;;2.60;;
5303;SDS011;2674;49.722;10.892;2023-01-15T18:04:01;7.72;;;2.50;;